Create Custom Reports and Graphics: Custom Report

AM-Summit 8643' (Ward Mt.)

Current Conditions

1/23/22 5:00 AM (-08:00)
Updated Every 15 Minutes
Temp 22.2 °F   5.2
RH 86 %   6
Wet Bulb 21.0 °F   4.5
Dew Pt 18.8 °F   3.5
Wind Spd 44.0 mph   40.3
Wind Dir ENE | 72 °
Wind Gust 49.5 mph   54.2
WindChill 1.5 °F   13.0

Last 6 Hours

AM-Summit 8643' (Ward Mt.)

15 Minute Data | America/Los_Angeles
as of 1/23/22 5:11 AM PST
Date & Time Temp (°F) RH (%) Dew Pt (°F) Wet Bulb (°F) Wind Dir (°) Wind Spd (mph) Wind Gust (mph) WindChill (°F)
1/23/22 - 0500 22.2 86 18.8 21.0 ENE | 72 44.0 49.5 1.5
1/23/22 - 0445 22.2 87 18.9 21.0 ENE | 70 45.2 50.8 1.3
1/23/22 - 0430 21.9 89 19.3 21.0 ENE | 66 45.5 50.7 0.9
1/23/22 - 0415 22.0 89 19.3 21.1 ENE | 63 46.0 50.8 0.8
1/23/22 - 0400 21.9 91 19.7 21.2 ENE | 61 48.0 57.9 0.5
1/23/22 - 0345 22.0 92 20.1 21.3 ENE | 60 48.9 55.3 0.3
1/23/22 - 0330 21.9 92 19.9 21.2 ENE | 66 49.7 57.7 0.1
1/23/22 - 0315 21.9 91 19.8 21.1 ENE | 62 50.2 60.7 0.3
1/23/22 - 0300 22.1 89 19.3 21.1 ENE | 65 50.8 57.8 0.2
1/23/22 - 0245 22.1 89 19.3 21.1 ENE | 63 51.8 58.5 -0.1
1/23/22 - 0230 21.9 90 19.4 21.0 ENE | 63 50.6 57.8 -0.0
1/23/22 - 0215 21.9 89 19.0 20.9 ENE | 68 53.2 60.4 -0.5
1/23/22 - 0200 21.8 89 19.0 20.8 ENE | 70 53.4 57.4 -0.6
1/23/22 - 0145 21.9 89 19.1 20.9 ENE | 66 54.1 62.5 -0.5
1/23/22 - 0130 22.0 87 18.7 20.8 ENE | 65 55.0 67.1 -0.4
1/23/22 - 0115 22.3 83 18.0 20.8 ENE | 67 52.1 62.9 0.1
1/23/22 - 0100 22.2 86 18.6 20.9 ENE | 66 52.3 58.2 0.2
1/23/22 - 0045 22.4 86 18.8 21.1 NE | 56 53.4 60.8 0.4
1/23/22 - 0030 22.5 86 18.8 21.2 NE | 56 53.0 60.2 0.4
1/23/22 - 0015 22.7 83 18.4 21.1 ENE | 57 55.8 67.5 0.2
1/23/22 - 0000 22.6 86 19.0 21.3 NE | 52 59.0 66.6 -0.4
1/22/22 - 2345 22.3 86 18.8 21.1 NE | 56 57.3 68.6 -0.4
1/22/22 - 2330 22.3 87 18.9 21.1 NE | 56 59.2 71.3 -0.5
1/22/22 - 2315 22.6 86 19.1 21.4 NE | 54 61.0 75.3 -0.6
Max 22.7 92 20.1 21.4 - 61.0 75.3 1.5
Avg 22.2 88 19.1 21.1 - 52.1 60.3 0.1
Min 21.8 83 18.0 20.8 - 44.0 49.5 -0.6

Last 30 Days

AM-Summit 8643' (Ward Mt.)

Daily Data | America/Los_Angeles
as of 1/23/22 5:11 AM PST
Date Daily Max Temp (°F) Time of Max Temp Daily Min Temp (°F) Time of Min Temp Wind Spd (mph) Daily Max Wind (mph) Max RH (%) Min RH (%) Wet Bulb (°F)
1/22/22 30.8 1520 16.9 0450 81.8 118.9 94 59 20.3
1/21/22 32.6 0002 18.9 2343 65.4 116.4 91 39 21.2
1/20/22 46.6 1507 27.5 0006 21.6 44.7 84 41 30.6
1/19/22 39.0 1537 25.7 0600 29.6 54.7 84 49 26.4
1/18/22 45.4 1525 28.3 2359 7.1 22.0 72 44 28.4
1/17/22 39.0 1425 30.3 1916 23.9 37.9 85 31 27.6
1/16/22 42.4 1444 33.2 2354 22.0 43.6 48 9 27.6
1/15/22 44.3 1359 28.4 0023 9.7 26.8 61 11 26.1
1/14/22 36.2 0016 24.5 0533 46.6 95.5 97 20 25.3
1/13/22 39.9 1424 32.0 0740 44.0 84.8 47 21 26.6
1/12/22 51.1 1435 34.9 2356 16.9 48.4 47 20 32.8
1/11/22 46.7 1400 31.2 0121 17.2 34.8 70 33 30.3
1/10/22 46.3 1447 25.9 0029 17.9 36.1 71 32 26.2
1/9/22 42.2 1439 20.5 0139 14.5 38.7 96 25 23.5
1/8/22 29.0 1528 17.7 0622 22.8 56.1 99 96 21.5
1/7/22 31.9 0035 21.7 0000 54.8 106.8 100 98 27.0
1/6/22 38.8 1518 31.6 2347 36.0 74.9 100 97 34.4
1/5/22 34.1 2345 27.3 0312 29.6 85.1 100 100 31.4
1/4/22 30.2 1328 25.8 0000 73.6 139.1 100 99 28.2
1/3/22 25.8 2356 15.8 0609 79.0 139.8 99 96 18.9
1/2/22 27.1 1518 16.6 2339 49.9 90.2 100 96 19.6
1/1/22 24.1 1528 7.6 0137 27.0 51.9 99 92 16.2
12/31/21 23.3 1238 8.5 2358 39.2 108.7 99 93 17.5
12/30/21 26.5 1209 17.9 0614 50.3 105.6 99 96 21.0
12/29/21 24.9 1154 17.1 0003 28.8 77.3 99 96 19.9
12/28/21 19.1 1421 12.3 0744 38.6 91.0 97 94 15.1
12/27/21 17.5 1320 11.9 2021 61.9 133.8 97 94 14.5
12/26/21 13.9 0000 9.1 0751 46.4 93.8 95 93 11.9
12/25/21 21.3 1112 13.8 2359 76.7 136.0 98 95 18.4
12/24/21 28.2 1114 18.8 2358 77.1 132.1 100 97 23.0
Max 51.1 - 34.9 - 81.8 139.8 100 100 34.4
Avg - - - - 40.3 - - - 23.7
Min 13.9 - 7.6 - 7.1 22.0 47 9 11.9
Calm: 0.0%
Calm: 0.0%